Time;durP1;ratioP1;P1;durP2;ratioP2;P2;SDS_P1;SDS_P2;PMS_P1;PMS_P2;Temp;Humidity;BMP_temperature;BMP_pressure;BME280_temperature;BME280_humidity;BME280_pressure;Samples;Min_cycle;Max_cycle;Signal;HPM_P1;HPM_P2
2022/10/31 00:00:29;;;;;;;12.97;4.93;;;11.20;99.90;;;;;;5067218;28;20553;-74
2022/10/31 00:03:15;;;;;;;9.80;5.17;;;11.20;99.90;;;;;;5067836;28;20458;-75
2022/10/31 00:06:02;;;;;;;10.73;5.00;;;11.20;99.90;;;;;;5071180;28;20417;-76
2022/10/31 00:08:52;;;;;;;9.03;4.60;;;11.20;99.90;;;;;;5051573;28;20424;-76
2022/10/31 00:11:38;;;;;;;6.07;4.37;;;11.10;99.90;;;;;;5060595;28;20472;-75
2022/10/31 00:14:23;;;;;;;14.77;5.37;;;11.00;99.90;;;;;;5068146;28;20461;-76
2022/10/31 00:17:09;;;;;;;11.50;5.50;;;11.00;99.90;;;;;;5069374;28;20470;-76
2022/10/31 00:19:54;;;;;;;8.47;4.60;;;11.10;99.90;;;;;;5066492;28;20446;-76
2022/10/31 00:22:41;;;;;;;12.87;5.33;;;11.00;99.90;;;;;;5061796;28;21003;-76
2022/10/31 00:25:36;;;;;;;8.67;5.20;;;11.10;99.90;;;;;;5067204;28;20412;-76
2022/10/31 00:28:22;;;;;;;11.30;5.70;;;11.00;99.90;;;;;;5071299;28;20409;-76
2022/10/31 00:31:09;;;;;;;8.87;6.00;;;11.00;99.90;;;;;;5068074;28;20548;-74
2022/10/31 00:33:55;;;;;;;11.70;6.23;;;11.00;99.90;;;;;;5069171;28;20503;-76
2022/10/31 00:36:40;;;;;;;12.00;5.80;;;10.90;99.90;;;;;;5069443;28;21073;-75
2022/10/31 00:39:27;;;;;;;13.97;6.10;;;10.90;99.90;;;;;;5067910;28;20472;-73
2022/10/31 00:42:13;;;;;;;11.63;6.80;;;10.80;99.90;;;;;;5066151;28;20478;-75
2022/10/31 00:44:59;;;;;;;10.30;6.30;;;10.80;99.90;;;;;;5069871;28;20394;-76
2022/10/31 00:47:44;;;;;;;11.30;6.97;;;10.70;99.90;;;;;;5062219;28;20421;-74
2022/10/31 00:50:30;;;;;;;13.47;6.73;;;10.70;99.90;;;;;;5071184;28;20421;-76
2022/10/31 00:53:16;;;;;;;14.23;7.03;;;10.70;99.90;;;;;;5065031;28;20453;-76
2022/10/31 00:56:03;;;;;;;12.20;6.20;;;10.80;99.90;;;;;;5070050;28;20440;-76
2022/10/31 00:58:49;;;;;;;16.30;7.10;;;10.70;99.90;;;;;;5068522;28;20421;-75
2022/10/31 01:01:35;;;;;;;11.40;5.90;;;10.70;99.90;;;;;;5066390;28;21096;-76
2022/10/31 01:04:20;;;;;;;11.57;6.70;;;10.70;99.90;;;;;;5074789;28;20401;-75
2022/10/31 01:07:06;;;;;;;12.90;7.47;;;10.60;99.90;;;;;;5069133;28;20601;-75
2022/10/31 01:09:52;;;;;;;15.47;7.37;;;10.60;99.90;;;;;;5068331;28;20397;-76
2022/10/31 01:12:40;;;;;;;12.47;7.77;;;10.60;99.90;;;;;;5067896;28;21037;-76
2022/10/31 01:15:26;;;;;;;9.83;7.63;;;10.60;99.90;;;;;;5072782;28;20460;-76
2022/10/31 01:18:11;;;;;;;10.90;7.20;;;10.70;99.90;;;;;;5073515;28;20479;-75
2022/10/31 01:21:02;;;;;;;13.90;7.10;;;10.70;99.90;;;;;;5067837;28;20425;-76
2022/10/31 01:23:48;;;;;;;13.53;7.90;;;10.60;99.90;;;;;;5067773;28;20465;-75
2022/10/31 01:26:34;;;;;;;22.10;8.30;;;10.70;99.90;;;;;;5074714;28;20870;-76
2022/10/31 01:29:21;;;;;;;14.30;7.90;;;10.70;99.90;;;;;;5072820;28;20430;-74
2022/10/31 01:32:07;;;;;;;10.80;6.70;;;10.80;99.90;;;;;;5070509;28;20475;-75
2022/10/31 01:34:52;;;;;;;13.47;7.53;;;10.80;99.90;;;;;;5070192;28;20445;-74
2022/10/31 01:37:37;;;;;;;14.30;6.40;;;10.80;99.90;;;;;;5065212;28;20416;-76
2022/10/31 01:40:23;;;;;;;9.33;5.50;;;10.80;99.90;;;;;;5071839;28;20417;-75
2022/10/31 01:43:13;;;;;;;10.00;6.47;;;10.80;99.90;;;;;;5068329;28;20474;-75
2022/10/31 01:46:00;;;;;;;9.97;6.00;;;10.80;99.90;;;;;;5065752;28;20446;-74
2022/10/31 01:48:46;;;;;;;8.37;6.20;;;10.80;99.90;;;;;;5065780;28;20933;-74
2022/10/31 01:51:35;;;;;;;9.43;6.40;;;10.70;99.90;;;;;;5062353;28;20422;-74
2022/10/31 01:54:23;;;;;;;10.10;6.67;;;10.70;99.90;;;;;;5064323;28;20450;-74
2022/10/31 01:57:11;;;;;;;10.03;5.77;;;10.60;99.90;;;;;;5073824;28;20873;-74
2022/10/31 02:00:01;;;;;;;13.27;6.60;;;10.50;99.90;;;;;;5071282;28;20544;-73
2022/10/31 02:02:49;;;;;;;12.00;6.60;;;10.50;99.90;;;;;;5071854;28;20520;-74
2022/10/31 02:05:36;;;;;;;10.97;5.57;;;10.70;99.90;;;;;;5072755;28;20535;-73
2022/10/31 02:08:26;;;;;;;7.83;5.57;;;10.70;99.90;;;;;;5072710;28;20433;-74
2022/10/31 02:11:12;;;;;;;11.33;5.70;;;10.80;99.90;;;;;;5070906;28;20801;-74
2022/10/31 02:13:59;;;;;;;6.97;5.20;;;10.80;99.90;;;;;;5071129;28;21127;-74
2022/10/31 02:16:45;;;;;;;8.90;6.00;;;10.80;99.90;;;;;;5066302;28;20574;-74
2022/10/31 02:19:41;;;;;;;14.43;5.50;;;10.60;99.90;;;;;;5069769;28;20446;-74
2022/10/31 02:22:30;;;;;;;12.37;6.00;;;10.60;99.90;;;;;;5070801;28;21004;-74
2022/10/31 02:25:34;;;;;;;7.90;5.57;;;10.70;99.90;;;;;;5071860;28;20447;-74
2022/10/31 02:28:55;;;;;;;7.30;5.67;;;10.80;99.90;;;;;;5071613;28;20544;-74
2022/10/31 02:31:49;;;;;;;8.07;5.70;;;10.80;99.90;;;;;;5068511;28;20442;-74
2022/10/31 02:34:41;;;;;;;13.43;5.77;;;10.70;99.90;;;;;;5071173;28;20426;-74
2022/10/31 02:37:35;;;;;;;12.13;5.60;;;10.70;99.90;;;;;;5070800;28;20756;-74
2022/10/31 02:40:26;;;;;;;10.80;5.83;;;10.70;99.90;;;;;;5066977;28;20422;-74
2022/10/31 02:43:20;;;;;;;6.67;5.50;;;10.80;99.90;;;;;;5069106;28;20636;-74
2022/10/31 02:46:11;;;;;;;9.90;6.17;;;10.80;99.90;;;;;;5072077;28;20487;-74
2022/10/31 02:49:03;;;;;;;12.20;6.13;;;10.60;99.90;;;;;;5054917;28;20408;-74
2022/10/31 02:51:49;;;;;;;11.20;5.17;;;10.50;99.90;;;;;;5069452;28;20443;-74
2022/10/31 02:54:34;;;;;;;12.83;6.10;;;10.40;99.90;;;;;;5070846;28;20898;-74
2022/10/31 02:57:24;;;;;;;9.53;5.60;;;10.40;99.90;;;;;;5070026;28;20538;-74
2022/10/31 03:00:11;;;;;;;15.43;6.10;;;10.30;99.90;;;;;;5066374;28;20931;-74
2022/10/31 03:03:03;;;;;;;9.10;5.83;;;10.30;99.90;;;;;;5066146;28;20527;-74
2022/10/31 03:06:01;;;;;;;9.10;6.17;;;10.20;99.90;;;;;;5065285;28;20440;-74
2022/10/31 03:08:55;;;;;;;14.63;6.50;;;10.20;99.90;;;;;;5072107;28;20397;-74
2022/10/31 03:11:47;;;;;;;14.90;6.70;;;10.20;99.90;;;;;;5070605;28;20417;-75
2022/10/31 03:14:41;;;;;;;7.73;5.60;;;10.20;99.90;;;;;;5072331;28;20431;-74
2022/10/31 03:17:35;;;;;;;11.70;6.17;;;10.20;99.90;;;;;;5070513;28;20449;-74
2022/10/31 03:20:25;;;;;;;9.07;5.80;;;10.30;99.90;;;;;;5068837;28;20530;-74
2022/10/31 03:23:15;;;;;;;15.40;6.47;;;10.30;99.90;;;;;;5070486;28;20544;-74
2022/10/31 03:26:03;;;;;;;10.50;6.57;;;10.20;99.90;;;;;;5065791;28;20415;-74
2022/10/31 03:28:53;;;;;;;9.17;5.33;;;10.10;99.90;;;;;;5070467;28;20447;-74
2022/10/31 03:31:44;;;;;;;12.33;6.80;;;10.10;99.90;;;;;;5066821;28;20833;-74
2022/10/31 03:34:31;;;;;;;10.40;6.43;;;10.10;99.90;;;;;;5067493;28;20998;-74
2022/10/31 03:37:20;;;;;;;13.50;6.03;;;10.10;99.90;;;;;;5065841;28;20921;-74
2022/10/31 03:40:10;;;;;;;10.30;6.50;;;10.20;99.90;;;;;;5063036;28;20430;-74
2022/10/31 03:43:00;;;;;;;9.83;6.83;;;10.30;99.90;;;;;;5067046;28;20478;-74
2022/10/31 03:45:47;;;;;;;8.83;6.20;;;10.30;99.90;;;;;;5058391;28;20439;-74
2022/10/31 03:48:33;;;;;;;8.47;6.10;;;10.20;99.90;;;;;;5070132;28;20484;-73
2022/10/31 03:51:27;;;;;;;9.53;5.63;;;10.20;99.90;;;;;;5073980;28;20798;-73
2022/10/31 03:54:19;;;;;;;10.60;5.73;;;10.20;99.90;;;;;;5067508;28;20463;-74
2022/10/31 03:57:10;;;;;;;9.57;6.30;;;10.30;99.90;;;;;;5065023;28;20453;-75
2022/10/31 04:00:02;;;;;;;9.97;5.60;;;10.30;99.90;;;;;;5064040;28;20955;-74
2022/10/31 04:02:54;;;;;;;9.30;5.77;;;10.30;99.90;;;;;;5071321;28;20455;-73
2022/10/31 04:05:43;;;;;;;13.30;7.03;;;10.30;99.90;;;;;;5069370;28;20489;-74
2022/10/31 04:08:32;;;;;;;10.93;5.43;;;10.30;99.90;;;;;;5069475;28;20430;-74
2022/10/31 04:11:20;;;;;;;19.03;6.57;;;10.30;99.90;;;;;;5057297;28;20418;-74
2022/10/31 04:14:09;;;;;;;7.67;5.07;;;10.40;99.90;;;;;;5070158;28;20991;-74
2022/10/31 04:16:55;;;;;;;13.20;5.00;;;10.40;99.90;;;;;;5064293;28;20914;-74
2022/10/31 04:19:41;;;;;;;12.57;5.63;;;10.30;99.90;;;;;;5057705;28;20564;-74
2022/10/31 04:22:27;;;;;;;7.80;6.30;;;10.20;99.90;;;;;;5069945;28;20499;-75
2022/10/31 04:25:13;;;;;;;10.77;5.60;;;10.20;99.90;;;;;;5070972;28;20426;-74
2022/10/31 04:27:58;;;;;;;8.03;4.90;;;10.20;99.90;;;;;;5067239;28;20970;-74
2022/10/31 04:30:45;;;;;;;8.30;6.03;;;10.20;99.90;;;;;;5059729;28;20597;-74
2022/10/31 04:33:31;;;;;;;9.67;5.70;;;10.20;99.90;;;;;;5070188;28;20441;-74
2022/10/31 04:36:16;;;;;;;11.77;5.90;;;10.30;99.90;;;;;;5070762;28;20465;-74
2022/10/31 04:39:02;;;;;;;10.77;6.23;;;10.20;99.90;;;;;;5067804;28;20471;-74
2022/10/31 04:41:48;;;;;;;10.27;6.00;;;10.10;99.90;;;;;;5070778;28;20559;-74
2022/10/31 04:44:33;;;;;;;11.23;6.10;;;10.00;99.90;;;;;;5069077;28;20446;-74
2022/10/31 04:47:20;;;;;;;9.47;6.23;;;9.90;99.90;;;;;;5065608;28;20584;-74
2022/10/31 04:50:07;;;;;;;10.83;6.23;;;9.90;99.90;;;;;;5065085;28;20959;-74
2022/10/31 04:52:52;;;;;;;10.10;5.90;;;9.90;99.90;;;;;;5070925;28;21090;-73
2022/10/31 04:55:38;;;;;;;9.90;6.10;;;10.00;99.90;;;;;;5070675;28;20431;-74
2022/10/31 04:58:24;;;;;;;11.10;4.97;;;10.10;99.90;;;;;;5067583;28;20777;-74
2022/10/31 05:01:09;;;;;;;9.67;5.50;;;10.20;99.90;;;;;;5071552;28;20409;-74
2022/10/31 05:03:56;;;;;;;11.50;5.03;;;10.20;99.90;;;;;;5057957;28;20755;-74
2022/10/31 05:06:42;;;;;;;9.20;6.23;;;10.20;99.90;;;;;;5070344;28;20585;-74
2022/10/31 05:09:27;;;;;;;13.60;5.50;;;10.10;99.90;;;;;;5063650;28;20443;-74
2022/10/31 05:12:13;;;;;;;12.37;6.23;;;10.10;99.90;;;;;;5068458;28;20482;-73
2022/10/31 05:14:59;;;;;;;8.53;5.30;;;10.10;99.90;;;;;;5068941;28;20813;-74
2022/10/31 05:17:45;;;;;;;7.93;5.30;;;10.00;99.90;;;;;;5067163;28;20490;-74
2022/10/31 05:20:32;;;;;;;8.33;5.13;;;9.90;99.90;;;;;;5069673;28;20944;-74
2022/10/31 05:23:18;;;;;;;5.70;4.90;;;9.80;99.90;;;;;;5069941;28;21005;-74
2022/10/31 05:26:03;;;;;;;12.70;5.30;;;9.80;99.90;;;;;;5070059;28;20401;-74
2022/10/31 05:28:49;;;;;;;9.77;5.47;;;9.70;99.90;;;;;;5066033;28;20421;-74
2022/10/31 05:31:34;;;;;;;7.40;4.57;;;9.70;99.90;;;;;;5069356;28;20463;-74
2022/10/31 05:34:20;;;;;;;13.90;5.50;;;9.80;99.90;;;;;;5069012;28;20421;-74
2022/10/31 05:37:07;;;;;;;8.03;5.63;;;9.80;99.90;;;;;;5065951;28;20829;-74
2022/10/31 05:39:53;;;;;;;9.37;4.90;;;9.80;99.90;;;;;;5069587;28;20415;-74
2022/10/31 05:42:39;;;;;;;8.00;4.90;;;9.80;99.90;;;;;;5051282;28;20459;-73
2022/10/31 05:45:25;;;;;;;12.13;6.97;;;9.70;99.90;;;;;;5069006;28;20423;-74
2022/10/31 05:48:14;;;;;;;9.07;5.87;;;9.70;99.90;;;;;;5066679;28;20443;-74
2022/10/31 05:50:59;;;;;;;8.57;5.20;;;9.60;99.90;;;;;;5073849;28;20489;-74
2022/10/31 05:53:47;;;;;;;8.50;5.13;;;9.50;99.90;;;;;;5073600;28;20980;-74
2022/10/31 05:56:32;;;;;;;8.70;5.30;;;9.40;99.90;;;;;;5073779;28;20441;-74
2022/10/31 05:59:18;;;;;;;9.00;4.93;;;9.40;99.90;;;;;;5065108;28;20457;-74
2022/10/31 06:02:04;;;;;;;9.47;5.80;;;9.40;99.90;;;;;;5071909;28;20982;-74
2022/10/31 06:04:49;;;;;;;9.23;6.27;;;9.50;99.90;;;;;;5065800;28;20450;-74
2022/10/31 06:07:35;;;;;;;16.57;5.13;;;9.60;99.90;;;;;;5068547;28;20411;-74
2022/10/31 06:10:23;;;;;;;8.50;5.00;;;9.50;99.90;;;;;;5065067;28;20531;-73
2022/10/31 06:13:08;;;;;;;12.47;5.43;;;9.50;99.90;;;;;;5073737;28;20990;-74
2022/10/31 06:15:54;;;;;;;11.03;4.87;;;9.40;99.90;;;;;;5071816;28;20472;-74
2022/10/31 06:18:40;;;;;;;17.87;5.57;;;9.40;99.90;;;;;;5066073;28;20421;-74
2022/10/31 06:21:25;;;;;;;14.63;5.20;;;9.50;99.90;;;;;;5066602;28;20578;-74
2022/10/31 06:24:11;;;;;;;7.63;5.10;;;9.60;99.90;;;;;;5063020;28;20441;-74
2022/10/31 06:26:58;;;;;;;7.40;5.00;;;9.50;99.90;;;;;;5069431;28;20433;-73
2022/10/31 06:29:45;;;;;;;13.50;5.80;;;9.50;99.90;;;;;;5065813;28;20447;-74
2022/10/31 06:32:31;;;;;;;9.03;5.30;;;9.50;99.90;;;;;;5071784;28;20433;-74
2022/10/31 06:35:17;;;;;;;15.77;5.97;;;9.50;99.90;;;;;;5071313;28;20442;-74
2022/10/31 06:38:02;;;;;;;12.30;6.47;;;9.60;99.90;;;;;;5069546;28;20466;-74
2022/10/31 06:40:48;;;;;;;9.17;6.63;;;9.50;99.90;;;;;;5068335;28;20427;-74
2022/10/31 06:43:35;;;;;;;8.13;6.03;;;9.50;99.90;;;;;;5072159;28;20832;-74
2022/10/31 06:46:21;;;;;;;8.93;5.57;;;9.50;99.90;;;;;;5070783;28;20431;-74
2022/10/31 06:49:07;;;;;;;15.27;5.27;;;9.50;99.90;;;;;;5068154;28;20420;-74
2022/10/31 06:51:52;;;;;;;11.63;6.03;;;9.50;99.90;;;;;;5066470;28;20757;-74
2022/10/31 06:54:38;;;;;;;17.13;7.27;;;9.50;99.90;;;;;;5071756;28;20942;-74
2022/10/31 06:57:24;;;;;;;11.07;6.90;;;9.50;99.90;;;;;;5067414;28;20465;-74
2022/10/31 07:00:12;;;;;;;8.53;6.10;;;9.60;99.90;;;;;;5071480;28;21152;-74
2022/10/31 07:02:59;;;;;;;8.50;5.63;;;9.70;99.90;;;;;;5066849;28;20439;-74
2022/10/31 07:05:45;;;;;;;9.70;6.73;;;9.80;99.90;;;;;;5070658;28;20454;-74
2022/10/31 07:08:30;;;;;;;9.33;5.60;;;9.90;99.90;;;;;;5065147;28;20556;-74
2022/10/31 07:11:16;;;;;;;9.30;5.47;;;10.10;99.90;;;;;;5072694;28;20422;-74
2022/10/31 07:14:01;;;;;;;8.47;5.97;;;10.10;99.90;;;;;;5069669;28;21108;-72
2022/10/31 07:16:51;;;;;;;11.50;5.90;;;10.10;99.90;;;;;;5061133;28;20540;-74
2022/10/31 07:19:36;;;;;;;7.73;6.03;;;10.20;99.90;;;;;;5068189;28;20442;-74
2022/10/31 07:22:22;;;;;;;6.80;4.97;;;10.30;99.90;;;;;;5072185;28;20810;-74
2022/10/31 07:25:09;;;;;;;9.50;6.33;;;10.40;99.90;;;;;;5071541;28;20500;-74
2022/10/31 07:27:54;;;;;;;10.30;6.50;;;10.40;99.90;;;;;;5065853;28;20484;-74
2022/10/31 07:30:40;;;;;;;12.63;6.33;;;10.50;99.90;;;;;;5063140;28;20965;-74
2022/10/31 07:33:27;;;;;;;10.30;5.97;;;10.50;99.90;;;;;;5072047;28;20459;-74
2022/10/31 07:36:13;;;;;;;13.83;7.33;;;10.60;99.90;;;;;;5069503;28;20884;-73
2022/10/31 07:38:59;;;;;;;18.50;7.43;;;10.70;99.90;;;;;;5066257;28;20404;-74
2022/10/31 07:41:44;;;;;;;17.23;7.67;;;10.80;99.90;;;;;;5069235;28;20421;-74
2022/10/31 07:44:30;;;;;;;10.93;7.40;;;10.80;99.90;;;;;;5071501;28;20450;-74
2022/10/31 07:47:16;;;;;;;17.73;9.10;;;10.90;99.90;;;;;;5064500;28;20446;-74
2022/10/31 07:50:03;;;;;;;12.93;9.53;;;10.90;99.90;;;;;;5068378;28;20506;-73
2022/10/31 07:52:49;;;;;;;11.47;9.70;;;11.00;99.90;;;;;;5054770;28;20470;-74
2022/10/31 07:55:36;;;;;;;13.50;9.50;;;11.00;99.90;;;;;;5071022;28;20913;-74
2022/10/31 07:58:21;;;;;;;21.80;9.00;;;11.10;99.90;;;;;;5062592;28;20453;-74
2022/10/31 08:01:07;;;;;;;20.90;10.00;;;11.20;99.90;;;;;;5070515;28;20425;-74
2022/10/31 08:03:53;;;;;;;11.33;8.53;;;11.20;99.90;;;;;;5071334;28;20446;-74
2022/10/31 08:06:40;;;;;;;23.67;8.40;;;11.40;99.90;;;;;;5064406;28;20459;-74
2022/10/31 08:09:26;;;;;;;14.77;7.60;;;11.30;99.90;;;;;;5062444;28;20940;-74
2022/10/31 08:12:11;;;;;;;12.73;9.20;;;11.30;99.90;;;;;;5068716;28;21010;-74
2022/10/31 08:14:57;;;;;;;17.23;8.60;;;11.40;99.90;;;;;;5062884;28;20529;-74
2022/10/31 08:17:43;;;;;;;12.47;7.63;;;11.40;99.90;;;;;;5066424;28;20830;-74
2022/10/31 08:20:28;;;;;;;12.10;6.80;;;11.50;99.90;;;;;;5070975;28;20791;-73
2022/10/31 08:23:15;;;;;;;15.40;7.20;;;11.60;99.90;;;;;;5070379;28;20828;-74
2022/10/31 08:26:01;;;;;;;12.40;7.13;;;11.60;99.90;;;;;;5062386;28;20458;-74
2022/10/31 08:28:47;;;;;;;19.53;7.37;;;11.70;99.90;;;;;;5070495;28;20417;-74
2022/10/31 08:31:33;;;;;;;11.37;8.70;;;11.80;99.90;;;;;;5069413;28;20447;-74
2022/10/31 08:34:18;;;;;;;11.37;7.17;;;11.80;99.90;;;;;;5069714;28;20553;-74
2022/10/31 08:37:04;;;;;;;13.30;8.47;;;11.90;99.90;;;;;;5065212;28;20449;-75
2022/10/31 08:39:51;;;;;;;8.97;7.53;;;12.00;99.90;;;;;;5070651;28;20422;-74
2022/10/31 08:42:36;;;;;;;8.80;5.63;;;12.10;99.90;;;;;;5070060;28;20490;-74
2022/10/31 08:45:22;;;;;;;17.50;7.10;;;12.30;99.90;;;;;;5068434;28;20450;-74
2022/10/31 08:48:11;;;;;;;14.50;7.17;;;12.40;99.90;;;;;;5070722;28;20426;-74
2022/10/31 08:50:58;;;;;;;10.27;6.40;;;12.50;99.90;;;;;;5070143;28;20446;-74
2022/10/31 08:53:43;;;;;;;8.57;6.40;;;12.60;99.90;;;;;;5054946;28;20466;-74
2022/10/31 08:56:31;;;;;;;15.27;7.93;;;12.70;99.90;;;;;;5066435;28;20438;-74
2022/10/31 08:59:16;;;;;;;11.57;7.30;;;12.80;99.90;;;;;;5061812;28;20466;-73
2022/10/31 09:02:02;;;;;;;11.90;6.30;;;13.00;99.90;;;;;;5070932;28;20431;-74
2022/10/31 09:04:47;;;;;;;16.63;7.27;;;13.10;99.90;;;;;;5060848;28;20393;-74
2022/10/31 09:07:33;;;;;;;12.20;6.93;;;13.30;99.90;;;;;;5052200;28;20390;-74
2022/10/31 09:10:19;;;;;;;11.60;6.47;;;13.50;99.90;;;;;;5069996;28;20425;-74
2022/10/31 09:13:08;;;;;;;12.10;6.73;;;13.70;99.90;;;;;;5070318;28;20440;-74
2022/10/31 09:15:54;;;;;;;10.30;7.03;;;13.80;99.90;;;;;;5066886;28;20505;-74
2022/10/31 09:18:39;;;;;;;15.80;7.73;;;13.90;99.90;;;;;;5068861;28;20470;-73
2022/10/31 09:21:25;;;;;;;14.30;8.67;;;14.00;99.90;;;;;;5067267;28;20417;-74
2022/10/31 09:24:11;;;;;;;12.50;8.33;;;14.10;99.90;;;;;;5072609;28;20464;-73
2022/10/31 09:26:57;;;;;;;12.80;7.80;;;14.30;99.90;;;;;;5070696;28;20463;-74
2022/10/31 09:29:44;;;;;;;23.43;8.70;;;14.50;99.90;;;;;;5066519;28;20857;-74
2022/10/31 09:32:29;;;;;;;11.13;8.03;;;14.60;99.90;;;;;;5073600;28;20970;-74
2022/10/31 09:35:15;;;;;;;20.80;8.73;;;14.70;99.90;;;;;;5068740;28;20950;-73
2022/10/31 09:38:02;;;;;;;18.80;8.00;;;14.80;99.90;;;;;;5054276;28;20430;-74
2022/10/31 09:40:50;;;;;;;14.30;8.60;;;15.00;99.90;;;;;;5067438;28;20465;-73
2022/10/31 09:43:51;;;;;;;11.10;7.60;;;15.10;99.90;;;;;;5073522;28;20478;-74
2022/10/31 09:46:50;;;;;;;11.30;7.53;;;15.20;99.90;;;;;;5069252;28;20421;-74
2022/10/31 09:49:54;;;;;;;17.33;7.80;;;15.40;99.90;;;;;;5074081;28;20513;-74
2022/10/31 09:52:54;;;;;;;17.73;8.27;;;15.50;99.90;;;;;;5073417;28;20472;-73
2022/10/31 09:55:43;;;;;;;16.73;7.23;;;15.60;99.90;;;;;;5066316;28;20439;-74
2022/10/31 09:58:30;;;;;;;15.20;7.20;;;15.80;99.90;;;;;;5068610;28;20445;-74
2022/10/31 10:01:26;;;;;;;20.70;6.83;;;15.90;99.90;;;;;;5071739;28;20901;-73
2022/10/31 10:04:31;;;;;;;19.37;7.60;;;16.10;99.90;;;;;;5067449;28;20540;-74
2022/10/31 10:07:23;;;;;;;15.03;6.57;;;16.20;99.90;;;;;;5068556;28;20442;-74
2022/10/31 10:10:16;;;;;;;13.43;7.10;;;16.30;99.90;;;;;;5067391;28;20814;-74
2022/10/31 10:13:17;;;;;;;17.57;7.20;;;16.40;99.90;;;;;;5073330;28;20970;-75
2022/10/31 10:16:12;;;;;;;16.07;6.20;;;16.50;99.90;;;;;;5058925;28;20421;-72
2022/10/31 10:19:12;;;;;;;14.37;5.27;;;16.70;99.90;;;;;;5069311;28;20466;-72
2022/10/31 10:22:08;;;;;;;14.63;7.00;;;16.70;99.90;;;;;;5064554;28;20446;-72
2022/10/31 10:25:10;;;;;;;12.53;7.00;;;16.80;99.90;;;;;;5063353;28;20418;-72
2022/10/31 10:28:09;;;;;;;14.97;5.70;;;17.00;99.90;;;;;;5069088;28;20422;-71
2022/10/31 10:31:00;;;;;;;13.60;6.10;;;17.10;99.90;;;;;;5068857;28;20453;-71
2022/10/31 10:34:02;;;;;;;11.23;6.63;;;17.30;99.90;;;;;;5064143;28;20983;-71
2022/10/31 10:36:52;;;;;;;15.93;6.40;;;17.40;99.90;;;;;;5065093;28;20425;-71
2022/10/31 10:39:44;;;;;;;15.00;6.27;;;17.50;99.90;;;;;;5067074;28;20465;-72
2022/10/31 10:48:44;;;;;;;12.60;6.40;;;17.90;99.90;;;;;;5068397;28;20754;-72
2022/10/31 10:51:39;;;;;;;17.60;7.10;;;18.00;99.90;;;;;;5070162;28;20434;-72
2022/10/31 10:55:00;;;;;;;11.50;6.90;;;18.00;99.90;;;;;;5060351;28;20798;-71
2022/10/31 10:57:57;;;;;;;12.40;6.47;;;18.00;99.90;;;;;;5053907;28;20945;-73
2022/10/31 11:00:46;;;;;;;13.53;7.17;;;18.10;99.90;;;;;;5069633;28;20423;-74
2022/10/31 11:03:36;;;;;;;8.47;5.83;;;18.10;99.90;;;;;;5071119;28;20442;-74
2022/10/31 11:06:25;;;;;;;12.67;6.97;;;18.00;99.90;;;;;;5071503;28;20899;-73
2022/10/31 11:09:11;;;;;;;15.17;6.50;;;18.10;99.90;;;;;;5071837;28;20784;-74
2022/10/31 11:11:59;;;;;;;13.60;6.60;;;18.10;99.90;;;;;;5072617;28;20418;-74
2022/10/31 11:14:48;;;;;;;13.13;6.03;;;18.00;99.90;;;;;;5063060;28;20769;-73
2022/10/31 11:17:36;;;;;;;11.23;7.17;;;18.00;99.90;;;;;;5052554;28;20915;-74
2022/10/31 11:20:31;;;;;;;14.73;6.90;;;18.00;99.90;;;;;;5052287;28;20559;-74
2022/10/31 11:23:19;;;;;;;14.30;6.30;;;18.00;99.90;;;;;;5051035;28;20964;-74
2022/10/31 11:26:16;;;;;;;10.57;5.80;;;18.00;99.90;;;;;;5067102;28;20483;-73
2022/10/31 11:29:03;;;;;;;13.57;6.40;;;17.90;99.90;;;;;;5071700;28;20798;-73
2022/10/31 11:31:53;;;;;;;9.20;4.87;;;17.90;99.90;;;;;;5072437;28;20402;-74
2022/10/31 11:34:43;;;;;;;14.40;5.93;;;18.00;99.90;;;;;;5058909;28;20467;-73
2022/10/31 11:37:31;;;;;;;10.00;5.37;;;18.00;99.90;;;;;;5052059;28;20424;-73
2022/10/31 11:40:20;;;;;;;11.00;6.13;;;18.00;99.90;;;;;;5052341;28;20530;-74
2022/10/31 11:43:05;;;;;;;14.90;6.40;;;18.00;99.90;;;;;;5051918;28;20475;-72
2022/10/31 11:45:52;;;;;;;19.70;6.90;;;18.00;99.90;;;;;;5071256;28;20460;-74
2022/10/31 11:48:38;;;;;;;14.07;5.97;;;18.00;99.90;;;;;;5063261;28;20521;-74
2022/10/31 11:51:26;;;;;;;13.23;7.10;;;18.00;99.90;;;;;;5062139;28;20451;-73
2022/10/31 11:54:22;;;;;;;12.73;6.10;;;18.00;99.90;;;;;;5063118;28;20453;-73
2022/10/31 11:57:23;;;;;;;10.37;6.07;;;18.00;99.90;;;;;;5063406;28;20450;-72
2022/10/31 12:00:22;;;;;;;16.33;7.13;;;18.10;99.90;;;;;;5065182;28;20437;-72
2022/10/31 12:03:24;;;;;;;13.70;7.50;;;18.00;99.90;;;;;;5057545;28;20490;-73
2022/10/31 12:06:15;;;;;;;15.57;7.60;;;18.10;99.90;;;;;;5060723;28;20584;-73
2022/10/31 12:09:01;;;;;;;22.57;7.50;;;18.10;99.90;;;;;;5063906;28;20451;-71
2022/10/31 12:12:03;;;;;;;15.40;7.80;;;18.20;99.90;;;;;;5065692;28;20485;-71
2022/10/31 12:15:02;;;;;;;12.23;7.40;;;18.20;99.90;;;;;;5063768;28;20462;-71
2022/10/31 12:17:56;;;;;;;13.13;8.33;;;18.30;99.90;;;;;;5065508;28;20552;-72
2022/10/31 12:20:55;;;;;;;23.43;9.03;;;18.40;99.90;;;;;;5068663;28;20909;-71
2022/10/31 12:23:54;;;;;;;12.70;8.20;;;18.40;99.90;;;;;;5069149;28;20482;-71
2022/10/31 12:26:47;;;;;;;14.63;8.50;;;18.50;99.90;;;;;;5066355;28;20927;-71
2022/10/31 12:29:50;;;;;;;18.93;8.80;;;18.50;99.90;;;;;;5058738;28;20500;-72
2022/10/31 12:32:44;;;;;;;17.43;9.10;;;18.50;99.90;;;;;;5070148;28;20450;-71
2022/10/31 12:35:40;;;;;;;13.53;8.57;;;18.50;99.90;;;;;;5068747;28;20462;-72
2022/10/31 12:38:42;;;;;;;17.60;9.20;;;18.50;99.90;;;;;;5064999;28;20465;-71
2022/10/31 12:41:45;;;;;;;18.43;10.00;;;18.50;99.90;;;;;;5067031;28;20422;-72
2022/10/31 12:45:01;;;;;;;21.40;9.60;;;18.60;99.90;;;;;;5063030;28;20470;-71
2022/10/31 12:48:03;;;;;;;14.20;9.13;;;18.50;99.90;;;;;;5068450;28;20425;-72
2022/10/31 12:50:56;;;;;;;14.37;9.70;;;18.40;99.90;;;;;;5058732;28;20480;-71
2022/10/31 12:53:58;;;;;;;16.03;9.33;;;18.40;99.90;;;;;;5065799;28;20445;-71
2022/10/31 12:56:55;;;;;;;16.33;9.00;;;18.30;99.90;;;;;;5065730;28;20789;-72
2022/10/31 12:59:44;;;;;;;11.80;8.60;;;18.30;99.90;;;;;;5063485;28;20602;-71
2022/10/31 13:02:34;;;;;;;15.50;9.03;;;18.30;99.90;;;;;;5068322;28;20497;-71
2022/10/31 13:05:26;;;;;;;18.63;10.73;;;18.20;99.90;;;;;;5067947;28;20443;-71
2022/10/31 13:08:13;;;;;;;20.33;11.53;;;18.10;99.90;;;;;;5065995;28;20575;-71
2022/10/31 13:11:07;;;;;;;19.83;11.03;;;18.10;99.90;;;;;;5060040;28;20454;-71
2022/10/31 13:14:01;;;;;;;16.30;9.80;;;18.10;99.90;;;;;;5066883;28;20478;-71
2022/10/31 13:16:48;;;;;;;17.87;11.67;;;18.10;99.90;;;;;;5071872;28;22502;-71
2022/10/31 13:19:40;;;;;;;14.50;9.20;;;18.00;99.90;;;;;;5069968;28;20474;-71
2022/10/31 13:22:31;;;;;;;25.30;10.97;;;18.00;99.90;;;;;;5070918;28;20446;-71
2022/10/31 13:25:21;;;;;;;18.43;9.93;;;18.10;99.90;;;;;;5072617;28;20952;-71
2022/10/31 13:28:18;;;;;;;20.90;10.70;;;18.00;99.90;;;;;;5066786;28;20446;-71
2022/10/31 13:31:04;;;;;;;14.83;9.67;;;18.00;99.90;;;;;;5073303;28;20465;-71
2022/10/31 13:33:54;;;;;;;14.07;10.47;;;18.00;99.90;;;;;;5058310;28;20619;-71
2022/10/31 13:36:44;;;;;;;21.10;10.30;;;18.00;99.90;;;;;;5073001;28;20450;-71
2022/10/31 13:39:40;;;;;;;20.20;10.00;;;18.00;99.90;;;;;;5069399;28;20848;-71
2022/10/31 13:42:42;;;;;;;20.33;9.67;;;18.00;99.90;;;;;;5068821;28;20482;-71
2022/10/31 13:45:29;;;;;;;11.73;9.00;;;18.00;99.90;;;;;;5069065;28;20589;-72
2022/10/31 13:48:33;;;;;;;14.10;10.60;;;18.00;99.90;;;;;;5064893;28;20456;-72
2022/10/31 13:51:28;;;;;;;25.53;9.33;;;18.00;99.90;;;;;;5068119;28;21086;-72
2022/10/31 13:54:22;;;;;;;15.63;8.30;;;17.90;99.90;;;;;;5061843;28;20461;-72
2022/10/31 13:57:15;;;;;;;17.97;8.43;;;17.90;99.90;;;;;;5068692;28;20487;-73
2022/10/31 14:00:04;;;;;;;20.00;8.87;;;17.90;99.90;;;;;;5068621;28;20580;-72
2022/10/31 14:02:55;;;;;;;15.73;9.77;;;17.80;99.90;;;;;;5065098;28;20441;-72
2022/10/31 14:05:41;;;;;;;16.40;8.77;;;17.80;99.90;;;;;;5065091;28;20813;-74
2022/10/31 14:08:27;;;;;;;18.47;9.33;;;17.80;99.90;;;;;;5069764;28;20412;-74
2022/10/31 14:11:23;;;;;;;18.80;9.40;;;17.90;99.90;;;;;;5069482;28;21086;-74
2022/10/31 14:14:12;;;;;;;14.90;8.40;;;18.00;99.90;;;;;;5053833;28;20595;-74
2022/10/31 14:16:58;;;;;;;13.47;9.30;;;18.20;99.90;;;;;;5053478;28;20937;-74
2022/10/31 14:20:11;;;;;;;13.17;8.57;;;18.20;99.90;;;;;;5054310;28;20798;-73
2022/10/31 14:22:57;;;;;;;16.43;8.43;;;18.30;99.90;;;;;;5051092;28;20450;-73
2022/10/31 14:25:42;;;;;;;21.10;9.50;;;18.30;99.90;;;;;;5073709;28;20532;-74
2022/10/31 14:28:34;;;;;;;11.57;9.47;;;18.30;99.90;;;;;;5074093;28;20734;-74
2022/10/31 14:31:33;;;;;;;13.33;8.50;;;18.30;99.90;;;;;;5071544;28;20490;-75
2022/10/31 14:34:24;;;;;;;19.30;8.27;;;18.30;99.90;;;;;;5064639;28;20994;-74
2022/10/31 14:37:55;;;;;;;17.97;8.43;;;18.30;99.90;;;;;;5074070;28;20405;-74
2022/10/31 14:40:53;;;;;;;14.77;8.00;;;18.30;99.90;;;;;;5071606;28;20529;-74